sensor_id;sensor_type;location;lat;lon;timestamp;P1;durP1;ratioP1;P2;durP2;ratioP2
45103;SDS011;30865;51.288;4.572;2023-07-29T00:00:42;4.97;;;3.58;;
45103;SDS011;30865;51.288;4.572;2023-07-29T00:03:08;5.57;;;3.70;;
45103;SDS011;30865;51.288;4.572;2023-07-29T00:05:35;7.75;;;3.90;;
45103;SDS011;30865;51.288;4.572;2023-07-29T00:08:01;6.28;;;3.58;;
45103;SDS011;30865;51.288;4.572;2023-07-29T00:10:26;10.43;;;4.18;;
45103;SDS011;30865;51.288;4.572;2023-07-29T00:12:52;7.88;;;3.90;;
45103;SDS011;30865;51.288;4.572;2023-07-29T00:15:18;6.93;;;3.50;;
45103;SDS011;30865;51.288;4.572;2023-07-29T00:17:43;4.82;;;3.15;;
45103;SDS011;30865;51.288;4.572;2023-07-29T00:20:09;4.68;;;2.80;;
45103;SDS011;30865;51.288;4.572;2023-07-29T00:22:34;3.00;;;2.63;;
45103;SDS011;30865;51.288;4.572;2023-07-29T00:25:00;4.50;;;3.00;;
45103;SDS011;30865;51.288;4.572;2023-07-29T00:27:25;6.57;;;2.80;;
45103;SDS011;30865;51.288;4.572;2023-07-29T00:29:51;6.15;;;3.28;;
45103;SDS011;30865;51.288;4.572;2023-07-29T00:32:17;4.13;;;2.33;;
45103;SDS011;30865;51.288;4.572;2023-07-29T00:34:43;4.32;;;2.20;;
45103;SDS011;30865;51.288;4.572;2023-07-29T00:37:08;5.15;;;2.53;;
45103;SDS011;30865;51.288;4.572;2023-07-29T00:39:35;5.25;;;2.63;;
45103;SDS011;30865;51.288;4.572;2023-07-29T00:42:02;2.50;;;2.25;;
45103;SDS011;30865;51.288;4.572;2023-07-29T00:44:27;3.15;;;2.30;;
45103;SDS011;30865;51.288;4.572;2023-07-29T00:46:53;6.07;;;3.85;;
45103;SDS011;30865;51.288;4.572;2023-07-29T00:49:20;4.95;;;3.33;;
45103;SDS011;30865;51.288;4.572;2023-07-29T00:51:46;8.38;;;3.10;;
45103;SDS011;30865;51.288;4.572;2023-07-29T00:54:12;9.50;;;3.33;;
45103;SDS011;30865;51.288;4.572;2023-07-29T00:56:38;5.85;;;3.30;;
45103;SDS011;30865;51.288;4.572;2023-07-29T00:59:03;5.32;;;2.90;;
45103;SDS011;30865;51.288;4.572;2023-07-29T01:01:29;4.30;;;2.40;;
45103;SDS011;30865;51.288;4.572;2023-07-29T01:03:56;4.72;;;2.55;;
45103;SDS011;30865;51.288;4.572;2023-07-29T01:06:38;8.90;;;2.55;;
45103;SDS011;30865;51.288;4.572;2023-07-29T01:18:23;5.10;;;2.58;;
45103;SDS011;30865;51.288;4.572;2023-07-29T01:20:52;3.28;;;2.35;;
45103;SDS011;30865;51.288;4.572;2023-07-29T01:23:25;3.35;;;1.85;;
45103;SDS011;30865;51.288;4.572;2023-07-29T01:25:53;3.15;;;2.17;;
45103;SDS011;30865;51.288;4.572;2023-07-29T01:28:19;4.20;;;2.92;;
45103;SDS011;30865;51.288;4.572;2023-07-29T01:30:45;5.80;;;2.85;;
45103;SDS011;30865;51.288;4.572;2023-07-29T01:33:18;3.40;;;2.40;;
45103;SDS011;30865;51.288;4.572;2023-07-29T01:36:11;4.38;;;3.28;;
45103;SDS011;30865;51.288;4.572;2023-07-29T01:38:40;4.35;;;2.25;;
45103;SDS011;30865;51.288;4.572;2023-07-29T01:41:08;5.80;;;3.15;;
45103;SDS011;30865;51.288;4.572;2023-07-29T01:43:34;5.72;;;2.80;;
45103;SDS011;30865;51.288;4.572;2023-07-29T01:46:07;4.10;;;2.88;;
45103;SDS011;30865;51.288;4.572;2023-07-29T01:48:34;4.57;;;3.13;;
45103;SDS011;30865;51.288;4.572;2023-07-29T01:51:00;8.43;;;3.30;;
45103;SDS011;30865;51.288;4.572;2023-07-29T01:53:25;7.45;;;3.45;;
45103;SDS011;30865;51.288;4.572;2023-07-29T01:55:51;4.18;;;2.97;;
45103;SDS011;30865;51.288;4.572;2023-07-29T01:58:16;6.10;;;3.10;;
45103;SDS011;30865;51.288;4.572;2023-07-29T02:00:42;5.90;;;3.70;;
45103;SDS011;30865;51.288;4.572;2023-07-29T02:03:07;8.50;;;2.53;;
45103;SDS011;30865;51.288;4.572;2023-07-29T02:05:33;3.22;;;2.00;;
45103;SDS011;30865;51.288;4.572;2023-07-29T02:07:58;3.45;;;2.47;;
45103;SDS011;30865;51.288;4.572;2023-07-29T02:10:24;5.78;;;3.15;;
45103;SDS011;30865;51.288;4.572;2023-07-29T02:12:49;5.70;;;1.95;;
45103;SDS011;30865;51.288;4.572;2023-07-29T02:15:16;2.55;;;2.00;;
45103;SDS011;30865;51.288;4.572;2023-07-29T02:17:42;3.47;;;1.75;;
45103;SDS011;30865;51.288;4.572;2023-07-29T02:20:07;3.38;;;1.90;;
45103;SDS011;30865;51.288;4.572;2023-07-29T02:22:33;2.67;;;1.45;;
45103;SDS011;30865;51.288;4.572;2023-07-29T02:24:59;6.25;;;1.70;;
45103;SDS011;30865;51.288;4.572;2023-07-29T02:27:25;2.60;;;1.50;;
45103;SDS011;30865;51.288;4.572;2023-07-29T02:29:52;3.00;;;1.70;;
45103;SDS011;30865;51.288;4.572;2023-07-29T02:32:18;1.88;;;1.50;;
45103;SDS011;30865;51.288;4.572;2023-07-29T02:34:44;2.63;;;1.85;;
45103;SDS011;30865;51.288;4.572;2023-07-29T02:37:09;4.35;;;2.50;;
45103;SDS011;30865;51.288;4.572;2023-07-29T02:39:35;5.95;;;2.83;;
45103;SDS011;30865;51.288;4.572;2023-07-29T02:42:00;5.72;;;2.83;;
45103;SDS011;30865;51.288;4.572;2023-07-29T02:44:26;3.90;;;2.30;;
45103;SDS011;30865;51.288;4.572;2023-07-29T02:46:51;5.68;;;2.83;;
45103;SDS011;30865;51.288;4.572;2023-07-29T02:49:17;4.33;;;2.07;;
45103;SDS011;30865;51.288;4.572;2023-07-29T02:51:43;4.95;;;2.65;;
45103;SDS011;30865;51.288;4.572;2023-07-29T02:54:08;3.35;;;2.13;;
45103;SDS011;30865;51.288;4.572;2023-07-29T02:56:34;4.78;;;2.50;;
45103;SDS011;30865;51.288;4.572;2023-07-29T02:58:59;5.10;;;2.80;;
45103;SDS011;30865;51.288;4.572;2023-07-29T03:01:26;3.33;;;2.70;;
45103;SDS011;30865;51.288;4.572;2023-07-29T03:03:51;4.43;;;3.40;;
45103;SDS011;30865;51.288;4.572;2023-07-29T03:06:17;7.20;;;3.10;;
45103;SDS011;30865;51.288;4.572;2023-07-29T03:08:43;7.60;;;3.63;;
45103;SDS011;30865;51.288;4.572;2023-07-29T03:11:10;7.55;;;2.90;;
45103;SDS011;30865;51.288;4.572;2023-07-29T03:13:37;5.22;;;2.90;;
45103;SDS011;30865;51.288;4.572;2023-07-29T03:16:06;4.25;;;3.03;;
45103;SDS011;30865;51.288;4.572;2023-07-29T03:18:35;3.35;;;2.88;;
45103;SDS011;30865;51.288;4.572;2023-07-29T03:21:02;4.82;;;2.88;;
45103;SDS011;30865;51.288;4.572;2023-07-29T03:23:28;4.43;;;2.75;;
45103;SDS011;30865;51.288;4.572;2023-07-29T03:26:03;7.75;;;2.78;;
45103;SDS011;30865;51.288;4.572;2023-07-29T03:28:35;4.07;;;2.70;;
45103;SDS011;30865;51.288;4.572;2023-07-29T03:31:02;5.93;;;2.60;;
45103;SDS011;30865;51.288;4.572;2023-07-29T03:33:28;5.78;;;3.03;;
45103;SDS011;30865;51.288;4.572;2023-07-29T03:35:54;6.20;;;2.63;;
45103;SDS011;30865;51.288;4.572;2023-07-29T03:38:20;5.53;;;2.50;;
45103;SDS011;30865;51.288;4.572;2023-07-29T03:40:45;7.15;;;3.30;;
45103;SDS011;30865;51.288;4.572;2023-07-29T03:43:11;5.68;;;2.97;;
45103;SDS011;30865;51.288;4.572;2023-07-29T03:45:37;6.45;;;2.83;;
45103;SDS011;30865;51.288;4.572;2023-07-29T03:48:03;4.57;;;2.63;;
45103;SDS011;30865;51.288;4.572;2023-07-29T03:50:29;3.45;;;2.38;;
45103;SDS011;30865;51.288;4.572;2023-07-29T03:52:55;3.90;;;2.63;;
45103;SDS011;30865;51.288;4.572;2023-07-29T03:55:21;6.10;;;2.60;;
45103;SDS011;30865;51.288;4.572;2023-07-29T03:57:48;4.57;;;3.13;;
45103;SDS011;30865;51.288;4.572;2023-07-29T04:00:13;5.53;;;2.58;;
45103;SDS011;30865;51.288;4.572;2023-07-29T04:02:39;3.95;;;3.03;;
45103;SDS011;30865;51.288;4.572;2023-07-29T04:05:06;5.05;;;2.45;;
45103;SDS011;30865;51.288;4.572;2023-07-29T04:07:33;5.95;;;3.00;;
45103;SDS011;30865;51.288;4.572;2023-07-29T04:10:02;4.07;;;2.70;;
45103;SDS011;30865;51.288;4.572;2023-07-29T04:12:29;2.63;;;2.25;;
45103;SDS011;30865;51.288;4.572;2023-07-29T04:14:55;5.00;;;2.30;;
45103;SDS011;30865;51.288;4.572;2023-07-29T04:17:20;4.18;;;2.38;;
45103;SDS011;30865;51.288;4.572;2023-07-29T04:19:46;4.40;;;2.05;;
45103;SDS011;30865;51.288;4.572;2023-07-29T04:22:12;6.43;;;3.03;;
45103;SDS011;30865;51.288;4.572;2023-07-29T04:24:37;3.85;;;2.97;;
45103;SDS011;30865;51.288;4.572;2023-07-29T04:27:03;5.93;;;2.42;;
45103;SDS011;30865;51.288;4.572;2023-07-29T04:29:29;4.40;;;2.53;;
45103;SDS011;30865;51.288;4.572;2023-07-29T04:31:54;5.25;;;2.72;;
45103;SDS011;30865;51.288;4.572;2023-07-29T04:34:20;4.28;;;2.90;;
45103;SDS011;30865;51.288;4.572;2023-07-29T04:36:46;5.72;;;2.78;;
45103;SDS011;30865;51.288;4.572;2023-07-29T04:39:12;4.18;;;2.75;;
45103;SDS011;30865;51.288;4.572;2023-07-29T04:41:38;7.90;;;2.58;;
45103;SDS011;30865;51.288;4.572;2023-07-29T04:44:03;4.68;;;2.92;;
45103;SDS011;30865;51.288;4.572;2023-07-29T04:46:29;5.18;;;2.38;;
45103;SDS011;30865;51.288;4.572;2023-07-29T04:48:54;4.50;;;2.97;;
45103;SDS011;30865;51.288;4.572;2023-07-29T04:51:20;5.05;;;3.00;;
45103;SDS011;30865;51.288;4.572;2023-07-29T04:53:46;4.78;;;3.13;;
45103;SDS011;30865;51.288;4.572;2023-07-29T04:56:11;11.13;;;3.97;;
45103;SDS011;30865;51.288;4.572;2023-07-29T04:58:37;6.13;;;3.42;;
45103;SDS011;30865;51.288;4.572;2023-07-29T05:01:03;4.20;;;2.47;;
45103;SDS011;30865;51.288;4.572;2023-07-29T05:03:29;5.85;;;3.10;;
45103;SDS011;30865;51.288;4.572;2023-07-29T05:05:55;6.88;;;3.08;;
45103;SDS011;30865;51.288;4.572;2023-07-29T05:08:22;5.40;;;2.80;;
45103;SDS011;30865;51.288;4.572;2023-07-29T05:10:51;2.13;;;1.83;;
45103;SDS011;30865;51.288;4.572;2023-07-29T05:13:17;5.53;;;2.60;;
45103;SDS011;30865;51.288;4.572;2023-07-29T05:15:43;6.30;;;2.85;;
45103;SDS011;30865;51.288;4.572;2023-07-29T05:18:08;3.90;;;2.67;;
45103;SDS011;30865;51.288;4.572;2023-07-29T05:20:34;4.40;;;2.78;;
45103;SDS011;30865;51.288;4.572;2023-07-29T05:22:59;3.90;;;1.95;;
45103;SDS011;30865;51.288;4.572;2023-07-29T05:25:25;5.82;;;2.53;;
45103;SDS011;30865;51.288;4.572;2023-07-29T05:27:51;3.40;;;2.45;;
45103;SDS011;30865;51.288;4.572;2023-07-29T05:30:17;3.63;;;2.10;;
45103;SDS011;30865;51.288;4.572;2023-07-29T05:32:42;3.72;;;2.45;;
45103;SDS011;30865;51.288;4.572;2023-07-29T05:35:08;4.32;;;2.20;;
45103;SDS011;30865;51.288;4.572;2023-07-29T05:37:33;3.75;;;2.88;;
45103;SDS011;30865;51.288;4.572;2023-07-29T05:39:59;5.35;;;3.05;;
45103;SDS011;30865;51.288;4.572;2023-07-29T05:42:24;3.30;;;2.38;;
45103;SDS011;30865;51.288;4.572;2023-07-29T05:44:50;3.22;;;2.42;;
45103;SDS011;30865;51.288;4.572;2023-07-29T05:47:15;6.05;;;2.70;;
45103;SDS011;30865;51.288;4.572;2023-07-29T05:49:41;3.05;;;2.00;;
45103;SDS011;30865;51.288;4.572;2023-07-29T05:52:06;2.85;;;2.00;;
45103;SDS011;30865;51.288;4.572;2023-07-29T05:54:32;4.40;;;2.05;;
45103;SDS011;30865;51.288;4.572;2023-07-29T05:56:58;2.75;;;2.17;;
45103;SDS011;30865;51.288;4.572;2023-07-29T05:59:23;3.80;;;1.58;;
45103;SDS011;30865;51.288;4.572;2023-07-29T06:01:49;2.50;;;1.27;;
45103;SDS011;30865;51.288;4.572;2023-07-29T06:04:14;1.98;;;1.60;;
45103;SDS011;30865;51.288;4.572;2023-07-29T06:06:42;3.60;;;1.63;;
45103;SDS011;30865;51.288;4.572;2023-07-29T06:09:08;1.63;;;1.52;;
45103;SDS011;30865;51.288;4.572;2023-07-29T06:11:33;1.90;;;1.63;;
45103;SDS011;30865;51.288;4.572;2023-07-29T06:13:59;3.55;;;1.60;;
45103;SDS011;30865;51.288;4.572;2023-07-29T06:16:24;2.47;;;1.63;;
45103;SDS011;30865;51.288;4.572;2023-07-29T06:18:50;3.03;;;1.83;;
45103;SDS011;30865;51.288;4.572;2023-07-29T06:21:17;3.22;;;1.60;;
45103;SDS011;30865;51.288;4.572;2023-07-29T06:23:44;2.92;;;1.60;;
45103;SDS011;30865;51.288;4.572;2023-07-29T06:26:10;2.88;;;1.35;;
45103;SDS011;30865;51.288;4.572;2023-07-29T06:28:36;1.67;;;1.13;;
45103;SDS011;30865;51.288;4.572;2023-07-29T06:31:01;1.85;;;1.30;;
45103;SDS011;30865;51.288;4.572;2023-07-29T06:33:27;1.67;;;1.10;;
45103;SDS011;30865;51.288;4.572;2023-07-29T06:35:52;1.42;;;1.20;;
45103;SDS011;30865;51.288;4.572;2023-07-29T06:38:18;2.22;;;1.23;;
45103;SDS011;30865;51.288;4.572;2023-07-29T06:40:46;2.30;;;1.48;;
45103;SDS011;30865;51.288;4.572;2023-07-29T06:43:13;2.13;;;1.23;;
45103;SDS011;30865;51.288;4.572;2023-07-29T06:45:38;2.55;;;1.42;;
45103;SDS011;30865;51.288;4.572;2023-07-29T06:48:04;3.53;;;1.75;;
45103;SDS011;30865;51.288;4.572;2023-07-29T06:50:29;5.43;;;2.17;;
45103;SDS011;30865;51.288;4.572;2023-07-29T06:52:55;3.15;;;1.38;;
45103;SDS011;30865;51.288;4.572;2023-07-29T06:55:20;2.45;;;1.85;;
45103;SDS011;30865;51.288;4.572;2023-07-29T06:57:46;2.33;;;1.48;;
45103;SDS011;30865;51.288;4.572;2023-07-29T07:00:11;3.28;;;1.65;;
45103;SDS011;30865;51.288;4.572;2023-07-29T07:02:37;3.95;;;1.75;;
45103;SDS011;30865;51.288;4.572;2023-07-29T07:05:02;3.88;;;1.90;;
45103;SDS011;30865;51.288;4.572;2023-07-29T07:07:28;2.97;;;2.13;;
45103;SDS011;30865;51.288;4.572;2023-07-29T07:09:54;3.17;;;1.90;;
45103;SDS011;30865;51.288;4.572;2023-07-29T07:12:19;4.90;;;2.15;;
45103;SDS011;30865;51.288;4.572;2023-07-29T07:14:45;3.60;;;2.00;;
45103;SDS011;30865;51.288;4.572;2023-07-29T07:17:10;4.18;;;2.42;;
45103;SDS011;30865;51.288;4.572;2023-07-29T07:19:36;4.60;;;2.10;;
45103;SDS011;30865;51.288;4.572;2023-07-29T07:22:02;3.70;;;2.10;;
45103;SDS011;30865;51.288;4.572;2023-07-29T07:24:27;8.60;;;2.63;;
45103;SDS011;30865;51.288;4.572;2023-07-29T07:26:53;4.35;;;2.28;;
45103;SDS011;30865;51.288;4.572;2023-07-29T07:29:18;3.70;;;1.60;;
45103;SDS011;30865;51.288;4.572;2023-07-29T07:31:49;5.25;;;1.80;;
45103;SDS011;30865;51.288;4.572;2023-07-29T07:34:17;2.05;;;1.38;;
45103;SDS011;30865;51.288;4.572;2023-07-29T07:36:43;6.68;;;2.00;;
45103;SDS011;30865;51.288;4.572;2023-07-29T07:39:08;3.92;;;1.85;;
45103;SDS011;30865;51.288;4.572;2023-07-29T07:41:34;3.00;;;1.90;;
45103;SDS011;30865;51.288;4.572;2023-07-29T07:43:59;3.25;;;2.42;;
45103;SDS011;30865;51.288;4.572;2023-07-29T07:46:25;4.90;;;2.75;;
45103;SDS011;30865;51.288;4.572;2023-07-29T07:48:50;4.07;;;1.83;;
45103;SDS011;30865;51.288;4.572;2023-07-29T07:51:16;5.20;;;1.98;;
45103;SDS011;30865;51.288;4.572;2023-07-29T07:53:41;4.25;;;2.38;;
45103;SDS011;30865;51.288;4.572;2023-07-29T07:56:07;3.47;;;2.05;;
45103;SDS011;30865;51.288;4.572;2023-07-29T07:58:33;4.95;;;1.70;;
45103;SDS011;30865;51.288;4.572;2023-07-29T08:01:05;6.15;;;1.73;;
45103;SDS011;30865;51.288;4.572;2023-07-29T08:03:32;4.43;;;1.58;;
45103;SDS011;30865;51.288;4.572;2023-07-29T08:05:58;2.53;;;1.55;;
45103;SDS011;30865;51.288;4.572;2023-07-29T08:08:24;3.92;;;1.20;;
45103;SDS011;30865;51.288;4.572;2023-07-29T08:10:52;12.98;;;2.10;;
45103;SDS011;30865;51.288;4.572;2023-07-29T08:13:19;2.10;;;1.23;;
45103;SDS011;30865;51.288;4.572;2023-07-29T08:15:46;2.25;;;0.85;;
45103;SDS011;30865;51.288;4.572;2023-07-29T08:18:13;1.35;;;1.10;;
45103;SDS011;30865;51.288;4.572;2023-07-29T08:20:38;3.20;;;1.17;;
45103;SDS011;30865;51.288;4.572;2023-07-29T08:23:04;1.85;;;1.45;;
45103;SDS011;30865;51.288;4.572;2023-07-29T08:25:29;3.95;;;1.75;;
45103;SDS011;30865;51.288;4.572;2023-07-29T08:27:55;4.03;;;1.63;;
45103;SDS011;30865;51.288;4.572;2023-07-29T08:30:20;2.50;;;1.10;;
45103;SDS011;30865;51.288;4.572;2023-07-29T08:32:46;1.17;;;0.98;;
45103;SDS011;30865;51.288;4.572;2023-07-29T08:35:11;5.65;;;1.02;;
45103;SDS011;30865;51.288;4.572;2023-07-29T08:37:36;2.03;;;1.10;;
45103;SDS011;30865;51.288;4.572;2023-07-29T08:40:02;1.33;;;1.08;;
45103;SDS011;30865;51.288;4.572;2023-07-29T08:42:29;1.40;;;0.90;;
45103;SDS011;30865;51.288;4.572;2023-07-29T08:44:56;1.45;;;1.00;;
45103;SDS011;30865;51.288;4.572;2023-07-29T08:47:32;1.73;;;1.23;;
45103;SDS011;30865;51.288;4.572;2023-07-29T08:49:57;1.77;;;1.10;;
45103;SDS011;30865;51.288;4.572;2023-07-29T08:52:26;2.53;;;1.50;;
45103;SDS011;30865;51.288;4.572;2023-07-29T08:54:52;1.25;;;0.85;;
45103;SDS011;30865;51.288;4.572;2023-07-29T08:57:18;4.53;;;1.75;;
45103;SDS011;30865;51.288;4.572;2023-07-29T08:59:45;1.52;;;1.00;;
45103;SDS011;30865;51.288;4.572;2023-07-29T09:02:11;1.60;;;1.05;;
45103;SDS011;30865;51.288;4.572;2023-07-29T09:04:36;2.50;;;1.40;;
45103;SDS011;30865;51.288;4.572;2023-07-29T09:07:02;2.13;;;1.15;;
45103;SDS011;30865;51.288;4.572;2023-07-29T09:09:29;1.60;;;1.30;;
45103;SDS011;30865;51.288;4.572;2023-07-29T09:11:54;1.90;;;1.52;;
45103;SDS011;30865;51.288;4.572;2023-07-29T09:14:20;1.15;;;1.05;;
45103;SDS011;30865;51.288;4.572;2023-07-29T09:16:46;2.40;;;1.23;;
45103;SDS011;30865;51.288;4.572;2023-07-29T09:19:12;1.35;;;0.80;;
45103;SDS011;30865;51.288;4.572;2023-07-29T09:21:41;2.15;;;1.20;;
45103;SDS011;30865;51.288;4.572;2023-07-29T09:24:07;1.88;;;1.58;;
45103;SDS011;30865;51.288;4.572;2023-07-29T09:26:33;1.55;;;1.15;;
45103;SDS011;30865;51.288;4.572;2023-07-29T09:28:59;2.22;;;1.35;;
45103;SDS011;30865;51.288;4.572;2023-07-29T09:31:26;3.03;;;1.60;;
45103;SDS011;30865;51.288;4.572;2023-07-29T09:33:59;2.28;;;1.73;;
45103;SDS011;30865;51.288;4.572;2023-07-29T09:36:32;3.00;;;1.17;;
45103;SDS011;30865;51.288;4.572;2023-07-29T09:38:58;1.83;;;1.15;;
45103;SDS011;30865;51.288;4.572;2023-07-29T09:41:25;1.38;;;1.10;;
45103;SDS011;30865;51.288;4.572;2023-07-29T09:46:24;2.00;;;1.17;;
45103;SDS011;30865;51.288;4.572;2023-07-29T09:48:53;1.38;;;1.13;;
45103;SDS011;30865;51.288;4.572;2023-07-29T09:51:22;2.42;;;1.20;;
45103;SDS011;30865;51.288;4.572;2023-07-29T09:53:49;2.50;;;0.93;;
45103;SDS011;30865;51.288;4.572;2023-07-29T09:56:16;1.15;;;1.05;;
45103;SDS011;30865;51.288;4.572;2023-07-29T09:58:43;1.95;;;1.27;;
45103;SDS011;30865;51.288;4.572;2023-07-29T10:01:10;1.92;;;1.25;;
45103;SDS011;30865;51.288;4.572;2023-07-29T10:03:36;2.28;;;1.10;;
45103;SDS011;30865;51.288;4.572;2023-07-29T10:06:03;1.85;;;0.93;;
45103;SDS011;30865;51.288;4.572;2023-07-29T10:08:29;1.85;;;0.88;;
45103;SDS011;30865;51.288;4.572;2023-07-29T10:11:01;2.42;;;1.10;;
45103;SDS011;30865;51.288;4.572;2023-07-29T10:13:27;3.13;;;1.00;;
45103;SDS011;30865;51.288;4.572;2023-07-29T10:15:53;0.77;;;0.77;;
45103;SDS011;30865;51.288;4.572;2023-07-29T10:18:21;1.30;;;1.00;;
45103;SDS011;30865;51.288;4.572;2023-07-29T10:20:48;1.33;;;0.88;;
45103;SDS011;30865;51.288;4.572;2023-07-29T10:23:15;1.15;;;0.80;;
45103;SDS011;30865;51.288;4.572;2023-07-29T10:25:45;2.17;;;1.52;;
45103;SDS011;30865;51.288;4.572;2023-07-29T10:28:14;1.52;;;1.10;;
45103;SDS011;30865;51.288;4.572;2023-07-29T10:30:42;3.28;;;1.05;;
45103;SDS011;30865;51.288;4.572;2023-07-29T10:33:08;1.58;;;0.98;;
45103;SDS011;30865;51.288;4.572;2023-07-29T10:35:35;1.10;;;0.95;;
45103;SDS011;30865;51.288;4.572;2023-07-29T10:38:02;2.15;;;1.08;;
45103;SDS011;30865;51.288;4.572;2023-07-29T10:40:46;1.30;;;1.20;;
45103;SDS011;30865;51.288;4.572;2023-07-29T10:43:12;2.35;;;0.95;;
45103;SDS011;30865;51.288;4.572;2023-07-29T10:45:44;2.05;;;1.10;;
45103;SDS011;30865;51.288;4.572;2023-07-29T10:48:10;3.15;;;0.98;;
45103;SDS011;30865;51.288;4.572;2023-07-29T10:50:36;4.20;;;0.90;;
45103;SDS011;30865;51.288;4.572;2023-07-29T10:53:01;1.42;;;1.25;;
45103;SDS011;30865;51.288;4.572;2023-07-29T10:55:29;2.00;;;1.23;;
45103;SDS011;30865;51.288;4.572;2023-07-29T10:58:12;3.30;;;1.00;;
45103;SDS011;30865;51.288;4.572;2023-07-29T11:00:42;2.00;;;1.77;;
45103;SDS011;30865;51.288;4.572;2023-07-29T11:03:09;1.88;;;1.13;;
45103;SDS011;30865;51.288;4.572;2023-07-29T11:05:51;7.82;;;1.45;;
45103;SDS011;30865;51.288;4.572;2023-07-29T11:08:21;14.23;;;1.58;;
45103;SDS011;30865;51.288;4.572;2023-07-29T11:13:36;2.67;;;1.17;;
45103;SDS011;30865;51.288;4.572;2023-07-29T11:16:03;4.05;;;0.70;;
45103;SDS011;30865;51.288;4.572;2023-07-29T11:18:33;1.50;;;0.82;;
45103;SDS011;30865;51.288;4.572;2023-07-29T11:21:00;1.98;;;1.13;;
45103;SDS011;30865;51.288;4.572;2023-07-29T11:23:32;4.57;;;1.20;;
45103;SDS011;30865;51.288;4.572;2023-07-29T11:25:59;2.67;;;0.70;;
45103;SDS011;30865;51.288;4.572;2023-07-29T11:28:26;4.68;;;1.05;;
45103;SDS011;30865;51.288;4.572;2023-07-29T11:30:53;6.55;;;1.05;;
45103;SDS011;30865;51.288;4.572;2023-07-29T11:33:20;1.40;;;0.85;;
45103;SDS011;30865;51.288;4.572;2023-07-29T11:35:46;1.83;;;0.80;;
45103;SDS011;30865;51.288;4.572;2023-07-29T11:38:16;1.00;;;0.70;;
45103;SDS011;30865;51.288;4.572;2023-07-29T11:40:42;1.25;;;0.68;;
45103;SDS011;30865;51.288;4.572;2023-07-29T11:43:08;1.17;;;0.82;;
45103;SDS011;30865;51.288;4.572;2023-07-29T11:45:33;1.38;;;0.95;;
45103;SDS011;30865;51.288;4.572;2023-07-29T11:48:00;1.65;;;1.13;;
45103;SDS011;30865;51.288;4.572;2023-07-29T11:50:26;1.38;;;1.25;;
45103;SDS011;30865;51.288;4.572;2023-07-29T11:52:52;1.35;;;0.90;;
45103;SDS011;30865;51.288;4.572;2023-07-29T11:55:18;1.17;;;0.93;;
45103;SDS011;30865;51.288;4.572;2023-07-29T11:57:44;2.13;;;1.00;;
45103;SDS011;30865;51.288;4.572;2023-07-29T12:00:16;0.93;;;0.77;;
45103;SDS011;30865;51.288;4.572;2023-07-29T12:02:43;0.80;;;0.77;;
45103;SDS011;30865;51.288;4.572;2023-07-29T12:05:12;1.83;;;1.13;;
45103;SDS011;30865;51.288;4.572;2023-07-29T12:07:39;1.20;;;0.80;;
45103;SDS011;30865;51.288;4.572;2023-07-29T12:10:06;1.23;;;1.00;;
45103;SDS011;30865;51.288;4.572;2023-07-29T12:12:32;0.70;;;0.70;;
45103;SDS011;30865;51.288;4.572;2023-07-29T12:14:57;1.70;;;1.17;;
45103;SDS011;30865;51.288;4.572;2023-07-29T12:17:23;1.65;;;0.88;;
45103;SDS011;30865;51.288;4.572;2023-07-29T12:19:48;1.58;;;1.00;;
45103;SDS011;30865;51.288;4.572;2023-07-29T12:22:17;1.40;;;0.95;;
45103;SDS011;30865;51.288;4.572;2023-07-29T12:24:44;1.88;;;0.98;;
45103;SDS011;30865;51.288;4.572;2023-07-29T12:27:13;3.83;;;1.20;;
45103;SDS011;30865;51.288;4.572;2023-07-29T12:29:40;4.43;;;1.17;;
45103;SDS011;30865;51.288;4.572;2023-07-29T12:32:07;4.05;;;1.67;;
45103;SDS011;30865;51.288;4.572;2023-07-29T12:34:32;1.65;;;1.38;;
45103;SDS011;30865;51.288;4.572;2023-07-29T12:36:58;1.02;;;0.93;;
45103;SDS011;30865;51.288;4.572;2023-07-29T12:39:25;1.02;;;0.80;;
45103;SDS011;30865;51.288;4.572;2023-07-29T12:41:52;1.27;;;0.95;;
45103;SDS011;30865;51.288;4.572;2023-07-29T12:44:19;1.92;;;1.38;;
45103;SDS011;30865;51.288;4.572;2023-07-29T12:46:44;0.95;;;0.85;;
45103;SDS011;30865;51.288;4.572;2023-07-29T12:49:10;2.35;;;0.93;;
45103;SDS011;30865;51.288;4.572;2023-07-29T12:51:36;3.53;;;1.38;;
45103;SDS011;30865;51.288;4.572;2023-07-29T12:54:02;1.63;;;0.77;;
45103;SDS011;30865;51.288;4.572;2023-07-29T12:56:29;1.40;;;0.90;;
45103;SDS011;30865;51.288;4.572;2023-07-29T12:58:56;1.88;;;1.10;;
45103;SDS011;30865;51.288;4.572;2023-07-29T13:01:24;2.80;;;1.23;;
45103;SDS011;30865;51.288;4.572;2023-07-29T13:03:51;1.33;;;1.23;;
45103;SDS011;30865;51.288;4.572;2023-07-29T13:06:16;1.85;;;0.93;;
45103;SDS011;30865;51.288;4.572;2023-07-29T13:08:42;2.35;;;1.70;;
45103;SDS011;30865;51.288;4.572;2023-07-29T13:11:08;0.95;;;0.85;;
45103;SDS011;30865;51.288;4.572;2023-07-29T13:13:33;3.17;;;0.80;;
45103;SDS011;30865;51.288;4.572;2023-07-29T13:15:59;2.40;;;1.25;;
45103;SDS011;30865;51.288;4.572;2023-07-29T13:18:24;1.58;;;1.00;;
45103;SDS011;30865;51.288;4.572;2023-07-29T13:20:50;1.30;;;1.20;;
45103;SDS011;30865;51.288;4.572;2023-07-29T13:23:16;1.60;;;0.98;;
45103;SDS011;30865;51.288;4.572;2023-07-29T13:25:41;1.10;;;1.00;;
45103;SDS011;30865;51.288;4.572;2023-07-29T13:28:08;1.67;;;1.10;;
45103;SDS011;30865;51.288;4.572;2023-07-29T13:30:34;1.73;;;1.52;;
45103;SDS011;30865;51.288;4.572;2023-07-29T13:33:00;1.83;;;1.25;;
45103;SDS011;30865;51.288;4.572;2023-07-29T13:35:26;1.35;;;1.15;;
45103;SDS011;30865;51.288;4.572;2023-07-29T13:37:52;2.92;;;1.23;;
45103;SDS011;30865;51.288;4.572;2023-07-29T13:40:17;3.90;;;1.13;;
45103;SDS011;30865;51.288;4.572;2023-07-29T13:42:43;5.00;;;1.10;;
45103;SDS011;30865;51.288;4.572;2023-07-29T13:45:08;2.92;;;1.08;;
45103;SDS011;30865;51.288;4.572;2023-07-29T13:47:34;1.92;;;1.02;;
45103;SDS011;30865;51.288;4.572;2023-07-29T13:50:00;2.40;;;1.00;;
45103;SDS011;30865;51.288;4.572;2023-07-29T13:52:25;2.53;;;1.30;;
45103;SDS011;30865;51.288;4.572;2023-07-29T13:54:51;1.27;;;1.02;;
45103;SDS011;30865;51.288;4.572;2023-07-29T13:57:17;1.13;;;1.00;;
45103;SDS011;30865;51.288;4.572;2023-07-29T13:59:42;1.10;;;0.93;;
45103;SDS011;30865;51.288;4.572;2023-07-29T14:02:08;1.60;;;0.82;;
45103;SDS011;30865;51.288;4.572;2023-07-29T14:04:33;1.45;;;1.02;;
45103;SDS011;30865;51.288;4.572;2023-07-29T14:06:59;1.50;;;1.20;;
45103;SDS011;30865;51.288;4.572;2023-07-29T14:09:25;2.22;;;1.08;;
45103;SDS011;30865;51.288;4.572;2023-07-29T14:11:51;2.85;;;1.25;;
45103;SDS011;30865;51.288;4.572;2023-07-29T14:14:16;0.98;;;0.90;;
45103;SDS011;30865;51.288;4.572;2023-07-29T14:16:42;1.27;;;1.10;;
45103;SDS011;30865;51.288;4.572;2023-07-29T14:19:07;1.42;;;0.70;;
45103;SDS011;30865;51.288;4.572;2023-07-29T14:21:33;0.98;;;0.80;;
45103;SDS011;30865;51.288;4.572;2023-07-29T14:23:59;1.00;;;0.85;;
45103;SDS011;30865;51.288;4.572;2023-07-29T14:26:24;1.35;;;1.00;;
45103;SDS011;30865;51.288;4.572;2023-07-29T14:28:50;1.00;;;0.70;;
45103;SDS011;30865;51.288;4.572;2023-07-29T14:31:16;1.42;;;1.27;;
45103;SDS011;30865;51.288;4.572;2023-07-29T14:33:42;2.75;;;0.98;;
45103;SDS011;30865;51.288;4.572;2023-07-29T14:36:08;1.73;;;1.00;;
45103;SDS011;30865;51.288;4.572;2023-07-29T14:38:34;0.77;;;0.75;;
45103;SDS011;30865;51.288;4.572;2023-07-29T14:41:00;1.23;;;1.08;;
45103;SDS011;30865;51.288;4.572;2023-07-29T14:43:26;1.55;;;1.00;;
45103;SDS011;30865;51.288;4.572;2023-07-29T14:45:51;1.60;;;1.08;;
45103;SDS011;30865;51.288;4.572;2023-07-29T14:48:17;2.25;;;1.27;;
45103;SDS011;30865;51.288;4.572;2023-07-29T14:50:42;2.13;;;1.35;;
45103;SDS011;30865;51.288;4.572;2023-07-29T14:53:09;1.10;;;1.00;;
45103;SDS011;30865;51.288;4.572;2023-07-29T14:55:34;1.42;;;1.05;;
45103;SDS011;30865;51.288;4.572;2023-07-29T14:58:01;1.23;;;0.90;;